createdAt,value
2023-05-20T00:00:24.091Z,77.06
2023-05-20T00:02:54.006Z,76.86
2023-05-20T00:05:22.131Z,76.82
2023-05-20T00:07:50.148Z,76.61
2023-05-20T00:10:17.994Z,76.59
2023-05-20T00:12:45.585Z,76.39
2023-05-20T00:15:13.337Z,76.33
2023-05-20T00:17:41.168Z,76.22
2023-05-20T00:20:09.806Z,76.05
2023-05-20T00:22:37.636Z,76.04
2023-05-20T00:25:05.812Z,76.00
2023-05-20T00:27:33.848Z,76.02
2023-05-20T00:30:02.348Z,75.90
2023-05-20T00:32:30.292Z,75.87
2023-05-20T00:34:59.584Z,75.89
2023-05-20T00:37:27.661Z,76.01
2023-05-20T00:39:55.956Z,76.03
2023-05-20T00:42:26.060Z,75.86
2023-05-20T00:44:54.864Z,75.80
2023-05-20T00:47:30.368Z,75.64
2023-05-20T00:49:59.550Z,75.62
2023-05-20T00:52:31.372Z,75.60
2023-05-20T00:55:01.134Z,75.62
2023-05-20T00:57:29.279Z,75.68
2023-05-20T00:59:57.499Z,75.76
2023-05-20T01:02:25.704Z,76.08
2023-05-20T01:04:56.101Z,76.25
2023-05-20T01:07:25.447Z,76.26
2023-05-20T01:09:55.455Z,76.31
2023-05-20T01:12:31.808Z,76.41
2023-05-20T01:15:07.326Z,76.35
2023-05-20T01:17:38.166Z,76.49
2023-05-20T01:20:10.871Z,76.39
2023-05-20T01:22:54.040Z,76.45
2023-05-20T01:25:22.160Z,76.46
2023-05-20T01:27:52.161Z,76.51
2023-05-20T01:30:20.980Z,76.64
2023-05-20T01:32:55.142Z,76.76
2023-05-20T01:35:23.955Z,76.99
2023-05-20T01:37:53.345Z,76.97
2023-05-20T01:40:21.806Z,76.93
2023-05-20T01:42:52.624Z,76.94
2023-05-20T01:45:20.911Z,77.11
2023-05-20T01:47:49.386Z,77.07
2023-05-20T01:50:17.556Z,77.25
2023-05-20T01:52:45.392Z,77.28
2023-05-20T01:55:14.682Z,77.50
2023-05-20T01:57:42.865Z,77.42
2023-05-20T02:00:11.700Z,77.45
2023-05-20T02:02:42.287Z,77.60
2023-05-20T02:05:12.072Z,77.54
2023-05-20T02:07:40.003Z,77.61
2023-05-20T02:10:08.507Z,77.33
2023-05-20T02:12:37.333Z,77.42
2023-05-20T02:15:06.734Z,77.53
2023-05-20T02:17:36.697Z,77.58
2023-05-20T02:20:07.202Z,77.69
2023-05-20T02:22:35.083Z,77.55
2023-05-20T02:25:04.996Z,77.63
2023-05-20T02:27:32.766Z,77.49
2023-05-20T02:30:00.743Z,77.69
2023-05-20T02:32:29.068Z,77.82
2023-05-20T02:34:56.921Z,77.93
2023-05-20T02:37:24.584Z,77.88
2023-05-20T02:39:52.139Z,77.97
2023-05-20T02:42:20.137Z,77.94
2023-05-20T02:44:47.841Z,78.04
2023-05-20T02:47:15.905Z,77.91
2023-05-20T02:49:43.872Z,77.92
2023-05-20T02:52:11.606Z,77.92
2023-05-20T02:54:39.402Z,78.11
2023-05-20T02:57:07.340Z,77.99
2023-05-20T02:59:35.121Z,77.96
2023-05-20T03:02:02.947Z,78.05
2023-05-20T03:04:31.257Z,77.99
2023-05-20T03:06:59.186Z,77.88
2023-05-20T03:09:26.929Z,77.80
2023-05-20T03:11:54.755Z,77.84
2023-05-20T03:14:22.453Z,77.77
2023-05-20T03:16:50.527Z,77.62
2023-05-20T03:19:19.689Z,77.99
2023-05-20T03:21:47.362Z,77.78
2023-05-20T03:24:15.471Z,76.74
2023-05-20T03:26:43.428Z,76.71
2023-05-20T03:29:11.318Z,77.25
2023-05-20T03:31:39.198Z,75.81
2023-05-20T03:34:07.896Z,74.05
2023-05-20T03:36:35.941Z,72.85
2023-05-20T03:39:03.933Z,70.03
2023-05-20T03:41:33.021Z,69.57
2023-05-20T03:44:01.043Z,68.68
2023-05-20T03:46:30.594Z,68.42
2023-05-20T03:48:58.642Z,68.12
2023-05-20T03:51:26.476Z,67.49
2023-05-20T03:53:55.569Z,67.50
2023-05-20T03:56:23.436Z,67.84
2023-05-20T03:58:52.643Z,68.16
2023-05-20T04:01:23.151Z,67.97
2023-05-20T04:03:51.961Z,67.12
2023-05-20T04:06:22.839Z,66.44
2023-05-20T04:08:52.311Z,66.26
2023-05-20T04:11:21.954Z,66.65
2023-05-20T04:13:51.613Z,66.21
2023-05-20T04:16:20.509Z,62.92
2023-05-20T04:18:48.585Z,61.51
2023-05-20T04:21:16.545Z,58.17
2023-05-20T04:23:44.355Z,56.45
2023-05-20T04:26:12.444Z,56.14
2023-05-20T04:28:41.473Z,56.86
2023-05-20T04:31:10.265Z,57.61
2023-05-20T04:33:38.953Z,57.73
2023-05-20T04:36:11.662Z,58.93
2023-05-20T04:38:41.696Z,58.93
2023-05-20T04:41:10.277Z,57.78
2023-05-20T04:43:39.581Z,57.07
2023-05-20T04:46:09.702Z,55.88
2023-05-20T04:48:43.978Z,55.02
2023-05-20T04:51:13.715Z,54.39
2023-05-20T04:53:46.050Z,54.68
2023-05-20T04:56:40.361Z,54.76
2023-05-20T04:59:47.370Z,55.23
2023-05-20T05:02:15.422Z,55.46
2023-05-20T05:04:43.443Z,55.78
2023-05-20T05:07:11.133Z,56.22
2023-05-20T05:09:39.215Z,56.80
2023-05-20T05:12:07.788Z,57.33
2023-05-20T05:14:36.117Z,57.82
2023-05-20T05:17:04.325Z,58.04
2023-05-20T05:19:32.472Z,58.30
2023-05-20T05:22:00.447Z,58.93
2023-05-20T05:24:28.282Z,59.46
2023-05-20T05:26:56.894Z,59.81
2023-05-20T05:29:25.522Z,60.20
2023-05-20T05:31:53.539Z,60.55
2023-05-20T05:34:21.289Z,60.80
2023-05-20T05:36:49.062Z,61.75
2023-05-20T05:39:16.857Z,62.15
2023-05-20T05:41:45.346Z,62.02
2023-05-20T05:44:14.622Z,61.73
2023-05-20T05:46:42.417Z,61.13
2023-05-20T05:49:10.374Z,61.14
2023-05-20T05:51:39.110Z,61.55
2023-05-20T05:54:07.244Z,60.83
2023-05-20T05:56:35.754Z,59.36
2023-05-20T05:59:05.714Z,58.02
2023-05-20T06:01:33.646Z,58.83
2023-05-20T06:04:01.633Z,60.13
2023-05-20T06:06:31.724Z,56.12
2023-05-20T06:08:59.814Z,55.17
2023-05-20T06:11:27.799Z,54.33
2023-05-20T06:13:59.703Z,51.98
2023-05-20T06:16:28.231Z,51.26
2023-05-20T06:18:56.864Z,50.84
2023-05-20T06:21:25.306Z,51.66
2023-05-20T06:23:53.104Z,51.95
2023-05-20T06:26:21.064Z,52.75
2023-05-20T06:29:05.123Z,52.81
2023-05-20T06:31:44.030Z,53.08
2023-05-20T06:34:12.198Z,53.31
2023-05-20T06:36:42.361Z,53.40
2023-05-20T06:39:13.479Z,53.61
2023-05-20T06:41:54.081Z,53.68
2023-05-20T06:44:35.734Z,53.71
2023-05-20T06:47:16.724Z,53.58
2023-05-20T06:49:49.163Z,53.11
2023-05-20T06:52:17.590Z,52.94
2023-05-20T06:54:46.712Z,52.95
2023-05-20T06:57:15.725Z,52.93
2023-05-20T06:59:43.892Z,52.60
2023-05-20T07:02:17.470Z,52.88
2023-05-20T07:04:49.968Z,52.82
2023-05-20T07:07:17.902Z,52.40
2023-05-20T07:09:47.512Z,52.81
2023-05-20T07:12:16.293Z,53.43
2023-05-20T07:14:44.326Z,53.46
2023-05-20T07:17:15.040Z,53.13
2023-05-20T07:19:43.750Z,52.89
2023-05-20T07:22:14.120Z,53.14
2023-05-20T07:24:45.041Z,53.08
2023-05-20T07:27:13.236Z,53.11
2023-05-20T07:29:41.607Z,53.09
2023-05-20T07:32:10.226Z,52.64
2023-05-20T07:34:40.581Z,52.43
2023-05-20T07:37:11.827Z,52.29
2023-05-20T07:39:45.003Z,51.86
2023-05-20T07:42:13.459Z,51.98
2023-05-20T07:44:43.533Z,52.07
2023-05-20T07:47:11.593Z,51.90
2023-05-20T07:49:40.222Z,50.96
2023-05-20T07:52:08.400Z,50.77
2023-05-20T07:54:36.788Z,52.13
2023-05-20T07:57:05.952Z,53.76
2023-05-20T07:59:33.868Z,54.77
2023-05-20T08:02:01.755Z,54.50
2023-05-20T08:04:30.163Z,54.31
2023-05-20T08:06:58.275Z,53.56
2023-05-20T08:09:28.063Z,52.68
2023-05-20T08:11:56.181Z,52.28
2023-05-20T08:14:23.835Z,52.96
2023-05-20T08:16:54.994Z,52.93
2023-05-20T08:19:23.733Z,52.31
2023-05-20T08:21:52.003Z,52.18
2023-05-20T08:24:21.359Z,53.04
2023-05-20T08:26:49.262Z,53.27
2023-05-20T08:29:17.399Z,52.50
2023-05-20T08:31:50.184Z,51.83
2023-05-20T08:34:20.688Z,50.89
2023-05-20T08:36:49.098Z,49.46
2023-05-20T08:39:17.214Z,49.13
2023-05-20T08:41:51.225Z,48.45
2023-05-20T08:44:22.457Z,47.55
2023-05-20T08:46:54.135Z,46.85
2023-05-20T08:49:24.939Z,45.30
2023-05-20T08:51:52.920Z,44.43
2023-05-20T08:54:26.615Z,44.40
2023-05-20T08:56:53.829Z,43.53
2023-05-20T08:59:21.922Z,46.70
2023-05-20T09:01:49.920Z,47.36
2023-05-20T09:04:17.934Z,46.36
2023-05-20T09:06:49.758Z,45.43
2023-05-20T09:09:20.730Z,45.17
2023-05-20T09:11:51.326Z,44.98
2023-05-20T09:14:21.887Z,42.54
2023-05-20T09:17:01.646Z,41.13
2023-05-20T09:19:29.840Z,41.51
2023-05-20T09:21:57.988Z,43.01
2023-05-20T09:24:26.865Z,43.56
2023-05-20T09:26:54.674Z,43.48
2023-05-20T09:29:23.319Z,39.98
2023-05-20T09:31:51.334Z,39.02
2023-05-20T09:34:21.544Z,38.12
2023-05-20T09:36:50.732Z,37.55
2023-05-20T09:39:22.778Z,37.06
2023-05-20T09:42:05.343Z,37.39
2023-05-20T09:44:34.943Z,37.72
2023-05-20T09:47:04.976Z,37.42
2023-05-20T09:49:36.027Z,37.84
2023-05-20T09:52:04.655Z,37.53
2023-05-20T09:54:33.421Z,37.91
2023-05-20T09:57:02.618Z,37.15
2023-05-20T09:59:33.725Z,37.60
2023-05-20T10:02:02.629Z,37.64
2023-05-20T10:04:32.166Z,37.33
2023-05-20T10:07:43.414Z,37.47
2023-05-20T10:10:29.041Z,36.74
2023-05-20T10:13:39.606Z,36.81
2023-05-20T10:16:39.126Z,36.94
2023-05-20T10:19:30.499Z,36.18
2023-05-20T10:22:01.459Z,34.93
2023-05-20T10:24:34.599Z,35.72
2023-05-20T10:27:05.153Z,36.54
2023-05-20T10:29:52.114Z,37.16
2023-05-20T10:32:32.001Z,37.83
2023-05-20T10:35:10.735Z,37.35
2023-05-20T10:37:44.769Z,37.27
2023-05-20T10:40:14.852Z,36.96
2023-05-20T10:42:42.984Z,37.22
2023-05-20T10:45:11.496Z,36.64
2023-05-20T10:47:56.420Z,34.96
2023-05-20T10:50:38.291Z,35.45
2023-05-20T10:53:13.293Z,35.71
2023-05-20T10:55:41.612Z,34.74
2023-05-20T10:58:11.728Z,35.24
2023-05-20T11:00:40.473Z,35.38
2023-05-20T11:03:08.333Z,34.70
2023-05-20T11:05:36.459Z,34.71
2023-05-20T11:08:16.934Z,34.04
2023-05-20T11:10:37.505Z,32.86
2023-05-20T11:13:05.860Z,33.71
2023-05-20T11:15:36.412Z,33.30
2023-05-20T11:18:04.836Z,34.28
2023-05-20T11:20:36.110Z,34.16
2023-05-20T11:23:06.255Z,34.09
2023-05-20T11:25:34.029Z,33.82
2023-05-20T11:28:02.322Z,33.28
2023-05-20T11:30:31.108Z,34.20
2023-05-20T11:33:02.321Z,34.46
2023-05-20T11:35:33.626Z,34.98
2023-05-20T11:38:08.652Z,35.04
2023-05-20T11:40:49.942Z,35.78
2023-05-20T11:43:06.299Z,33.11
2023-05-20T11:45:43.627Z,32.33
2023-05-20T11:48:14.734Z,33.62
2023-05-20T11:50:45.534Z,35.98
2023-05-20T11:53:19.232Z,38.10
2023-05-20T11:55:59.011Z,42.48
2023-05-20T11:58:29.748Z,45.36
2023-05-20T12:01:20.911Z,47.90
2023-05-20T12:03:49.963Z,49.56
2023-05-20T12:06:28.241Z,50.29
2023-05-20T12:09:07.048Z,51.73
2023-05-20T12:11:36.781Z,52.25
2023-05-20T12:14:05.038Z,51.33
2023-05-20T12:16:34.476Z,50.08
2023-05-20T12:19:03.251Z,51.18
2023-05-20T12:21:31.906Z,52.23
2023-05-20T12:24:00.516Z,51.64
2023-05-20T12:26:30.129Z,51.50
2023-05-20T12:28:58.106Z,50.07
2023-05-20T12:31:26.537Z,50.06
2023-05-20T12:33:54.241Z,51.67
2023-05-20T12:36:22.644Z,53.49
2023-05-20T12:38:50.276Z,53.15
2023-05-20T12:41:18.085Z,53.52
2023-05-20T12:43:46.181Z,52.60
2023-05-20T12:46:14.476Z,52.76
2023-05-20T12:48:42.765Z,50.09
2023-05-20T12:51:10.611Z,49.13
2023-05-20T12:53:38.379Z,47.01
2023-05-20T12:56:07.945Z,46.46
2023-05-20T12:58:36.075Z,45.86
2023-05-20T13:01:04.032Z,44.70
2023-05-20T13:03:33.434Z,44.26
2023-05-20T13:06:01.953Z,44.16
2023-05-20T13:08:30.195Z,43.20
2023-05-20T13:11:00.863Z,42.85
2023-05-20T13:13:29.135Z,42.98
2023-05-20T13:15:59.902Z,42.63
2023-05-20T13:18:28.298Z,43.20
2023-05-20T13:20:57.122Z,42.81
2023-05-20T13:23:24.894Z,42.46
2023-05-20T13:25:52.716Z,42.38
2023-05-20T13:28:21.057Z,41.28
2023-05-20T13:30:48.785Z,41.50
2023-05-20T13:33:16.729Z,41.45
2023-05-20T13:35:44.730Z,41.95
2023-05-20T13:38:12.147Z,42.21
2023-05-20T13:40:40.082Z,43.82
2023-05-20T13:43:08.018Z,44.99
2023-05-20T13:45:36.018Z,45.30
2023-05-20T13:48:03.802Z,44.95
2023-05-20T13:50:33.975Z,44.34
2023-05-20T13:53:01.043Z,44.75
2023-05-20T13:55:28.714Z,45.00
2023-05-20T13:57:56.763Z,44.56
2023-05-20T14:00:24.517Z,43.92
2023-05-20T14:02:53.058Z,44.67
2023-05-20T14:05:20.923Z,46.95
2023-05-20T14:07:49.201Z,47.70
2023-05-20T14:10:16.922Z,48.92
2023-05-20T14:12:46.316Z,49.08
2023-05-20T14:15:14.369Z,49.37
2023-05-20T14:17:42.173Z,49.19
2023-05-20T14:20:10.655Z,49.95
2023-05-20T14:22:38.651Z,50.48
2023-05-20T14:25:07.287Z,50.69
2023-05-20T14:27:35.566Z,50.77
2023-05-20T14:30:04.313Z,50.94
2023-05-20T14:32:33.240Z,49.60
2023-05-20T14:35:28.867Z,49.30
2023-05-20T14:37:56.829Z,49.25
2023-05-20T14:40:24.714Z,48.79
2023-05-20T14:42:52.643Z,48.91
2023-05-20T14:45:20.479Z,48.43
2023-05-20T14:47:48.411Z,46.49
2023-05-20T14:50:16.451Z,47.16
2023-05-20T14:52:44.134Z,46.55
2023-05-20T14:55:11.906Z,45.89
2023-05-20T14:57:39.751Z,44.35
2023-05-20T15:00:10.188Z,44.65
2023-05-20T15:02:38.730Z,44.02
2023-05-20T15:05:07.391Z,44.27
2023-05-20T15:07:35.214Z,43.93
2023-05-20T15:10:03.284Z,43.51
2023-05-20T15:12:31.224Z,43.94
2023-05-20T15:15:00.038Z,44.05
2023-05-20T15:17:30.661Z,43.98
2023-05-20T15:19:58.541Z,43.70
2023-05-20T15:22:26.809Z,43.30
2023-05-20T15:24:55.087Z,43.71
2023-05-20T15:27:23.085Z,43.84
2023-05-20T15:29:52.124Z,44.11
2023-05-20T15:32:20.359Z,44.56
2023-05-20T15:34:48.295Z,45.01
2023-05-20T15:37:17.504Z,45.75
2023-05-20T15:39:45.396Z,46.30
2023-05-20T15:42:13.543Z,45.29
2023-05-20T15:44:41.393Z,45.33
2023-05-20T15:47:09.287Z,42.83
2023-05-20T15:49:40.656Z,40.96
2023-05-20T15:52:09.501Z,40.40
2023-05-20T15:54:37.243Z,39.18
2023-05-20T16:03:25.385Z,39.74
2023-05-20T16:25:27.316Z,41.58
2023-05-20T16:27:55.158Z,42.34
2023-05-20T16:30:23.062Z,42.80
2023-05-20T16:32:50.934Z,43.06
2023-05-20T16:35:21.025Z,43.46
2023-05-20T16:37:49.227Z,43.42
2023-05-20T16:40:17.398Z,43.53
2023-05-20T16:42:45.232Z,43.71
2023-05-20T16:45:15.301Z,44.21
2023-05-20T16:47:43.365Z,44.32
2023-05-20T16:50:20.969Z,44.84
2023-05-20T16:52:55.527Z,45.24
2023-05-20T16:55:23.797Z,45.62
2023-05-20T16:57:54.735Z,45.82
2023-05-20T17:00:22.561Z,46.04
2023-05-20T17:02:50.838Z,46.52
2023-05-20T17:05:19.241Z,47.01
2023-05-20T17:07:48.419Z,47.74
2023-05-20T17:10:16.318Z,47.69
2023-05-20T17:12:44.075Z,48.01
2023-05-20T17:15:12.667Z,48.46
2023-05-20T17:17:42.754Z,48.60
2023-05-20T17:20:11.294Z,48.96
2023-05-20T17:22:39.157Z,49.44
2023-05-20T17:25:07.633Z,49.79
2023-05-20T17:27:36.631Z,50.08
2023-05-20T17:30:09.539Z,50.35
2023-05-20T17:32:38.188Z,50.74
2023-05-20T17:35:07.651Z,51.68
2023-05-20T17:37:36.369Z,51.86
2023-05-20T17:40:07.136Z,51.96
2023-05-20T17:42:35.295Z,52.07
2023-05-20T17:45:03.560Z,52.13
2023-05-20T17:47:31.580Z,52.27
2023-05-20T17:50:02.039Z,52.26
2023-05-20T17:52:50.603Z,52.65
2023-05-20T17:55:18.683Z,52.69
2023-05-20T17:58:17.150Z,52.72
2023-05-20T18:00:45.303Z,52.90
2023-05-20T18:03:27.470Z,52.91
2023-05-20T18:05:56.528Z,53.12
2023-05-20T18:08:25.003Z,53.27
2023-05-20T18:10:53.231Z,53.34
2023-05-20T18:13:21.078Z,53.68
2023-05-20T18:15:49.116Z,54.03
2023-05-20T18:18:17.560Z,54.24
2023-05-20T18:20:47.691Z,54.41
2023-05-20T18:23:15.876Z,54.43
2023-05-20T18:25:47.624Z,54.58
2023-05-20T18:28:20.768Z,54.87
2023-05-20T18:30:50.545Z,55.22
2023-05-20T18:33:18.620Z,55.45
2023-05-20T18:39:26.946Z,55.59
2023-05-20T18:42:10.177Z,55.67
2023-05-20T18:44:44.072Z,55.64
2023-05-20T18:47:25.641Z,55.75
2023-05-20T18:49:55.276Z,55.98
2023-05-20T18:52:28.785Z,56.27
2023-05-20T18:54:58.636Z,56.41
2023-05-20T18:57:27.477Z,56.52
2023-05-20T18:59:56.523Z,56.74
2023-05-20T19:02:30.480Z,57.34
2023-05-20T19:04:58.949Z,57.51
2023-05-20T19:07:46.400Z,57.76
2023-05-20T19:10:18.506Z,57.79
2023-05-20T19:12:48.088Z,57.71
2023-05-20T19:15:17.884Z,57.78
2023-05-20T19:17:47.980Z,57.96
2023-05-20T19:20:18.304Z,58.06
2023-05-20T19:25:56.216Z,58.06
2023-05-20T19:29:04.659Z,58.22
2023-05-20T19:31:31.852Z,58.18
2023-05-20T19:33:59.869Z,57.54
2023-05-20T19:36:28.129Z,57.24
2023-05-20T19:38:58.069Z,57.24
2023-05-20T19:41:25.769Z,57.25
2023-05-20T19:43:53.542Z,57.34
2023-05-20T19:46:21.585Z,57.43
2023-05-20T19:48:49.411Z,57.32
2023-05-20T19:51:20.484Z,57.25
2023-05-20T19:53:49.500Z,57.37
2023-05-20T19:56:19.281Z,57.37
2023-05-20T19:58:47.785Z,57.51
2023-05-20T20:01:18.601Z,57.61
2023-05-20T20:03:48.511Z,57.65
2023-05-20T20:06:16.438Z,57.46
2023-05-20T20:08:45.224Z,57.39
2023-05-20T20:11:13.721Z,57.32
2023-05-20T20:13:43.011Z,57.42
2023-05-20T20:16:11.182Z,57.57
2023-05-20T20:18:40.928Z,57.88
2023-05-20T20:21:11.295Z,58.10
2023-05-20T20:23:39.189Z,58.67
2023-05-20T20:26:07.458Z,58.82
2023-05-20T20:28:36.358Z,58.99
2023-05-20T20:31:04.430Z,59.22
2023-05-20T20:33:32.253Z,59.38
2023-05-20T20:36:02.354Z,59.70
2023-05-20T20:38:33.040Z,60.07
2023-05-20T20:41:02.763Z,60.48
2023-05-20T20:43:36.255Z,60.36
2023-05-20T20:46:05.800Z,60.65
2023-05-20T20:48:34.127Z,60.89
2023-05-20T20:51:04.057Z,61.34
2023-05-20T20:53:32.189Z,61.47
2023-05-20T20:56:01.482Z,61.66
2023-05-20T20:58:31.712Z,62.17
2023-05-20T21:01:00.253Z,62.38
2023-05-20T21:03:30.510Z,62.76
2023-05-20T21:06:01.398Z,63.44
2023-05-20T21:08:31.402Z,63.36
2023-05-20T21:10:59.731Z,64.09
2023-05-20T21:13:30.914Z,64.60
2023-05-20T21:16:00.301Z,64.73
2023-05-20T21:18:29.220Z,65.04
2023-05-20T21:20:58.466Z,65.06
2023-05-20T21:23:30.196Z,65.27
2023-05-20T21:26:03.482Z,65.93
2023-05-20T21:28:38.797Z,65.89
2023-05-20T21:31:08.525Z,66.62
2023-05-20T21:33:39.535Z,67.11
2023-05-20T21:36:08.830Z,67.99
2023-05-20T21:38:47.927Z,67.60
2023-05-20T21:41:16.761Z,67.67
2023-05-20T21:43:47.130Z,68.65
2023-05-20T21:46:15.206Z,68.38
2023-05-20T21:48:43.023Z,68.22
2023-05-20T21:51:10.863Z,68.13
2023-05-20T21:53:38.966Z,68.36
2023-05-20T21:56:07.220Z,68.24
2023-05-20T21:58:37.276Z,68.19
2023-05-20T22:01:05.010Z,68.17
2023-05-20T22:03:35.283Z,68.28
2023-05-20T22:06:04.587Z,68.54
2023-05-20T22:08:35.640Z,68.53
2023-05-20T22:11:05.271Z,68.54
2023-05-20T22:13:35.687Z,68.83
2023-05-20T22:16:04.228Z,69.02
2023-05-20T22:18:32.003Z,68.87
2023-05-20T22:21:00.533Z,68.94
2023-05-20T22:23:28.891Z,68.96
2023-05-20T22:25:57.453Z,68.93
2023-05-20T22:28:25.784Z,68.95
2023-05-20T22:30:54.133Z,69.12
2023-05-20T22:33:22.315Z,69.31
2023-05-20T22:35:50.976Z,69.39
2023-05-20T22:38:19.525Z,69.43
2023-05-20T22:40:47.455Z,69.39
2023-05-20T22:43:15.911Z,69.37
2023-05-20T22:45:43.647Z,69.30
2023-05-20T22:48:11.898Z,69.24
2023-05-20T22:50:39.658Z,69.15
2023-05-20T22:53:07.575Z,69.09
2023-05-20T22:55:37.339Z,69.04
2023-05-20T22:58:05.192Z,69.02
2023-05-20T23:00:32.790Z,68.93
2023-05-20T23:03:00.442Z,68.95
2023-05-20T23:05:29.661Z,69.03
2023-05-20T23:07:59.920Z,69.00
2023-05-20T23:10:28.038Z,68.95
2023-05-20T23:12:55.837Z,69.05
2023-05-20T23:15:27.234Z,69.08
2023-05-20T23:17:55.639Z,69.03
2023-05-20T23:20:23.693Z,69.10
2023-05-20T23:22:52.927Z,68.96
2023-05-20T23:25:23.944Z,68.98
2023-05-20T23:27:52.243Z,68.82
2023-05-20T23:30:20.121Z,68.75
2023-05-20T23:32:48.183Z,68.65
2023-05-20T23:35:18.065Z,68.52
2023-05-20T23:37:46.641Z,68.49
2023-05-20T23:40:15.814Z,68.51
2023-05-20T23:42:44.751Z,68.35
2023-05-20T23:45:12.914Z,68.30
2023-05-20T23:47:40.886Z,68.29
2023-05-20T23:50:09.529Z,68.25
2023-05-20T23:52:37.300Z,68.22
2023-05-20T23:55:08.661Z,68.22
2023-05-20T23:57:37.607Z,68.25
